SVA142Z OEJN-OEMA
Flight info
| Callsign | SVA142Z |
|---|---|
| Flight time | 0h 33m |
| Altitude | 21000 |
| Route | DATAP A424 RULEB/N0347F200 A424 DEGVU |
| Aircraft | A21N/M-SDE2E3FGHIRWXY/LB1 |
Departure
| Time | 2026-04-28 23:05 |
|---|---|
| Airport | King Abdulaziz International Airport (OEJN) |
Arrival
| Time | 2026-04-28 23:38 |
|---|---|
| Airport | Prince Mohammad Bin Abdulaziz Airport (OEMA) |
| Time | Latitude | Longitude | Altitude | Speed | Heading |
|---|---|---|---|---|---|
| 2026-04-28 22:15 | 21.67152 | 39.16974 | 35 ft | 0 kts | 154° |
| 2026-04-28 22:16 | 21.67157 | 39.16971 | 34 ft | 0 kts | 154° |
| 2026-04-28 22:38 | 21.67159 | 39.16970 | 36 ft | 2 kts | 154° |
| 2026-04-28 22:38 | 21.67183 | 39.16960 | 36 ft | 4 kts | 168° |
| 2026-04-28 22:38 | 21.67209 | 39.16957 | 33 ft | 4 kts | 185° |
| 2026-04-28 22:38 | 21.67236 | 39.16963 | 33 ft | 4 kts | 203° |
| 2026-04-28 22:39 | 21.67258 | 39.16977 | 33 ft | 4 kts | 224° |
| 2026-04-28 22:39 | 21.67269 | 39.16989 | 33 ft | 1 kts | 236° |
| 2026-04-28 22:47 | 21.67231 | 39.16943 | 33 ft | 16 kts | 224° |
| 2026-04-28 22:47 | 21.67198 | 39.16911 | 36 ft | 0 kts | 223° |
| 2026-04-28 22:48 | 21.67197 | 39.16909 | 36 ft | 1 kts | 221° |
| 2026-04-28 22:48 | 21.67188 | 39.16903 | 36 ft | 0 kts | 204° |
| 2026-04-28 22:49 | 21.67187 | 39.16903 | 34 ft | 1 kts | 204° |
| 2026-04-28 22:50 | 21.67186 | 39.16902 | 34 ft | 0 kts | 203° |
| 2026-04-28 22:51 | 21.67138 | 39.16876 | 35 ft | 0 kts | 209° |
| 2026-04-28 22:51 | 21.67136 | 39.16874 | 35 ft | 7 kts | 210° |
| 2026-04-28 22:51 | 21.67121 | 39.16865 | 37 ft | 0 kts | 212° |
| 2026-04-28 22:51 | 21.67120 | 39.16864 | 37 ft | 0 kts | 212° |
| 2026-04-28 22:54 | 21.67123 | 39.16866 | 37 ft | 2 kts | 210° |
| 2026-04-28 22:54 | 21.67138 | 39.16873 | 35 ft | 2 kts | 187° |
| 2026-04-28 22:54 | 21.67154 | 39.16878 | 35 ft | 3 kts | 216° |
| 2026-04-28 22:55 | 21.67165 | 39.16892 | 33 ft | 2 kts | 213° |
| 2026-04-28 22:55 | 21.67181 | 39.16897 | 33 ft | 2 kts | 189° |
| 2026-04-28 22:55 | 21.67198 | 39.16900 | 35 ft | 2 kts | 189° |
| 2026-04-28 22:55 | 21.67214 | 39.16906 | 36 ft | 2 kts | 210° |
| 2026-04-28 22:56 | 21.67227 | 39.16917 | 34 ft | 2 kts | 247° |
| 2026-04-28 22:56 | 21.67227 | 39.16912 | 34 ft | 10 kts | 257° |
| 2026-04-28 22:56 | 21.67216 | 39.16855 | 36 ft | 6 kts | 260° |
| 2026-04-28 22:56 | 21.67220 | 39.16811 | 36 ft | 5 kts | 296° |
| 2026-04-28 22:57 | 21.67252 | 39.16791 | 35 ft | 12 kts | 344° |
| 2026-04-28 22:57 | 21.67385 | 39.16746 | 35 ft | 27 kts | 345° |
| 2026-04-28 22:57 | 21.67594 | 39.16675 | 35 ft | 31 kts | 340° |
| 2026-04-28 22:57 | 21.67665 | 39.16588 | 34 ft | 11 kts | 266° |
| 2026-04-28 22:58 | 21.67601 | 39.16470 | 35 ft | 27 kts | 245° |
| 2026-04-28 22:58 | 21.67539 | 39.16283 | 33 ft | 15 kts | 253° |
| 2026-04-28 22:58 | 21.67498 | 39.16180 | 33 ft | 15 kts | 233° |
| 2026-04-28 22:58 | 21.67412 | 39.16175 | 33 ft | 13 kts | 159° |
| 2026-04-28 22:59 | 21.67329 | 39.16209 | 34 ft | 13 kts | 159° |
| 2026-04-28 22:59 | 21.67249 | 39.16241 | 35 ft | 12 kts | 160° |
| 2026-04-28 22:59 | 21.67171 | 39.16273 | 35 ft | 15 kts | 159° |
| 2026-04-28 22:59 | 21.67060 | 39.16318 | 35 ft | 24 kts | 160° |
| 2026-04-28 23:00 | 21.66835 | 39.16406 | 37 ft | 42 kts | 160° |
| 2026-04-28 23:00 | 21.66576 | 39.16509 | 38 ft | 29 kts | 159° |
| 2026-04-28 23:00 | 21.66390 | 39.16581 | 37 ft | 28 kts | 160° |
| 2026-04-28 23:00 | 21.66362 | 39.16593 | 38 ft | 0 kts | 159° |
| 2026-04-28 23:01 | 21.66359 | 39.16594 | 38 ft | 1 kts | 159° |
| 2026-04-28 23:01 | 21.66352 | 39.16597 | 38 ft | 1 kts | 158° |
| 2026-04-28 23:01 | 21.66341 | 39.16601 | 38 ft | 2 kts | 158° |
| 2026-04-28 23:01 | 21.66327 | 39.16607 | 38 ft | 2 kts | 159° |
| 2026-04-28 23:02 | 21.66312 | 39.16608 | 38 ft | 2 kts | 188° |
| 2026-04-28 23:02 | 21.66295 | 39.16599 | 38 ft | 7 kts | 214° |
| 2026-04-28 23:02 | 21.66256 | 39.16542 | 37 ft | 11 kts | 255° |
| 2026-04-28 23:02 | 21.66252 | 39.16438 | 34 ft | 14 kts | 320° |
| 2026-04-28 23:03 | 21.66271 | 39.16427 | 36 ft | 0 kts | 341° |
| 2026-04-28 23:04 | 21.66411 | 39.16370 | 38 ft | 52 kts | 340° |
| 2026-04-28 23:05 | 21.66940 | 39.16163 | 36 ft | 111 kts | 339° |
| 2026-04-28 23:05 | 21.67863 | 39.15804 | 36 ft | 166 kts | 340° |
| 2026-04-28 23:05 | 21.68956 | 39.15375 | 564 ft | 162 kts | 339° |
| 2026-04-28 23:05 | 21.70020 | 39.14944 | 1140 ft | 165 kts | 340° |
| 2026-04-28 23:06 | 21.71088 | 39.14499 | 1775 ft | 164 kts | 339° |
| 2026-04-28 23:06 | 21.72148 | 39.14052 | 2378 ft | 164 kts | 339° |
| 2026-04-28 23:06 | 21.73220 | 39.13601 | 2966 ft | 168 kts | 338° |
| 2026-04-28 23:06 | 21.74325 | 39.13140 | 3559 ft | 173 kts | 338° |
| 2026-04-28 23:07 | 21.75476 | 39.12711 | 4183 ft | 176 kts | 339° |
| 2026-04-28 23:07 | 21.76635 | 39.12288 | 4802 ft | 179 kts | 338° |
| 2026-04-28 23:07 | 21.77810 | 39.11849 | 5421 ft | 179 kts | 336° |
| 2026-04-28 23:07 | 21.78993 | 39.11398 | 6035 ft | 183 kts | 336° |
| 2026-04-28 23:08 | 21.80260 | 39.10936 | 6465 ft | 208 kts | 337° |
| 2026-04-28 23:08 | 21.81705 | 39.10386 | 6856 ft | 230 kts | 337° |
| 2026-04-28 23:08 | 21.83380 | 39.10080 | 7202 ft | 260 kts | 0° |
| 2026-04-28 23:08 | 21.85223 | 39.10529 | 7486 ft | 283 kts | 17° |
| 2026-04-28 23:09 | 21.87094 | 39.11339 | 7997 ft | 295 kts | 21° |
| 2026-04-28 23:09 | 21.88992 | 39.12235 | 8638 ft | 301 kts | 21° |
| 2026-04-28 23:09 | 21.90925 | 39.13157 | 9354 ft | 305 kts | 22° |
| 2026-04-28 23:09 | 21.92875 | 39.14086 | 10058 ft | 308 kts | 22° |
| 2026-04-28 23:10 | 21.94875 | 39.15033 | 10468 ft | 323 kts | 21° |
| 2026-04-28 23:10 | 21.96998 | 39.16036 | 10753 ft | 342 kts | 21° |
| 2026-04-28 23:10 | 21.99228 | 39.17088 | 10994 ft | 359 kts | 21° |
| 2026-04-28 23:10 | 22.01556 | 39.18186 | 11383 ft | 369 kts | 21° |
| 2026-04-28 23:11 | 22.03924 | 39.19306 | 11886 ft | 374 kts | 21° |
| 2026-04-28 23:11 | 22.06323 | 39.20439 | 12432 ft | 379 kts | 21° |
| 2026-04-28 23:11 | 22.08752 | 39.21587 | 12977 ft | 383 kts | 21° |
| 2026-04-28 23:11 | 22.11206 | 39.22746 | 13533 ft | 387 kts | 21° |
| 2026-04-28 23:12 | 22.13650 | 39.23902 | 14029 ft | 391 kts | 21° |
| 2026-04-28 23:12 | 22.16154 | 39.25086 | 14533 ft | 394 kts | 21° |
| 2026-04-28 23:12 | 22.18675 | 39.26278 | 15048 ft | 398 kts | 21° |
| 2026-04-28 23:12 | 22.21221 | 39.27482 | 15576 ft | 401 kts | 21° |
| 2026-04-28 23:13 | 22.23793 | 39.28700 | 16108 ft | 405 kts | 21° |
| 2026-04-28 23:13 | 22.26385 | 39.29927 | 16625 ft | 408 kts | 21° |
| 2026-04-28 23:13 | 22.29000 | 39.31165 | 17140 ft | 412 kts | 21° |
| 2026-04-28 23:13 | 22.31633 | 39.32413 | 17639 ft | 415 kts | 21° |
| 2026-04-28 23:14 | 22.34298 | 39.33676 | 18107 ft | 418 kts | 21° |
| 2026-04-28 23:14 | 22.36951 | 39.34934 | 18509 ft | 422 kts | 21° |
| 2026-04-28 23:14 | 22.39649 | 39.36214 | 18919 ft | 425 kts | 21° |
| 2026-04-28 23:14 | 22.42371 | 39.37506 | 19300 ft | 429 kts | 21° |
| 2026-04-28 23:15 | 22.45111 | 39.38807 | 19644 ft | 433 kts | 20° |
| 2026-04-28 23:15 | 22.47891 | 39.40127 | 19960 ft | 438 kts | 20° |
| 2026-04-28 23:15 | 22.50716 | 39.41469 | 20051 ft | 449 kts | 20° |
| 2026-04-28 23:15 | 22.53574 | 39.42826 | 20056 ft | 459 kts | 20° |
| 2026-04-28 23:16 | 22.56521 | 39.44227 | 20055 ft | 466 kts | 21° |
| 2026-04-28 23:16 | 22.59508 | 39.45648 | 20059 ft | 472 kts | 21° |
| 2026-04-28 23:16 | 22.62530 | 39.47087 | 20035 ft | 477 kts | 21° |
| 2026-04-28 23:16 | 22.65585 | 39.48533 | 20054 ft | 479 kts | 20° |
| 2026-04-28 23:17 | 22.68644 | 39.49849 | 20597 ft | 468 kts | 17° |
| 2026-04-28 23:17 | 22.71666 | 39.51048 | 21259 ft | 458 kts | 16° |
| 2026-04-28 23:17 | 22.74659 | 39.52189 | 21819 ft | 455 kts | 15° |
| 2026-04-28 23:17 | 22.77653 | 39.53315 | 22244 ft | 456 kts | 15° |
| 2026-04-28 23:18 | 22.80656 | 39.54446 | 22623 ft | 458 kts | 15° |
| 2026-04-28 23:18 | 22.83678 | 39.55593 | 22975 ft | 461 kts | 15° |
| 2026-04-28 23:18 | 22.86720 | 39.56757 | 23319 ft | 465 kts | 15° |
| 2026-04-28 23:18 | 22.89743 | 39.57922 | 23613 ft | 469 kts | 15° |
| 2026-04-28 23:19 | 22.92832 | 39.59119 | 23930 ft | 471 kts | 15° |
| 2026-04-28 23:19 | 22.95921 | 39.60322 | 24264 ft | 472 kts | 15° |
| 2026-04-28 23:19 | 22.99019 | 39.61529 | 24581 ft | 473 kts | 14° |
| 2026-04-28 23:19 | 23.02191 | 39.62351 | 24866 ft | 465 kts | 1° |
| 2026-04-28 23:20 | 23.05404 | 39.62744 | 25162 ft | 465 kts | 359° |
| 2026-04-28 23:20 | 23.08627 | 39.63007 | 25475 ft | 464 kts | 357° |
| 2026-04-28 23:20 | 23.11863 | 39.63190 | 25734 ft | 466 kts | 356° |
| 2026-04-28 23:20 | 23.15107 | 39.63335 | 25985 ft | 468 kts | 355° |
| 2026-04-28 23:21 | 23.18408 | 39.63470 | 25796 ft | 481 kts | 355° |
| 2026-04-28 23:21 | 23.21798 | 39.63610 | 25707 ft | 492 kts | 356° |
| 2026-04-28 23:21 | 23.25237 | 39.63769 | 25814 ft | 497 kts | 356° |
| 2026-04-28 23:21 | 23.28716 | 39.63942 | 25918 ft | 501 kts | 356° |
| 2026-04-28 23:22 | 23.32168 | 39.64120 | 26022 ft | 505 kts | 356° |
| 2026-04-28 23:22 | 23.35698 | 39.64307 | 26126 ft | 509 kts | 356° |
| 2026-04-28 23:22 | 23.39252 | 39.64495 | 26192 ft | 513 kts | 356° |
| 2026-04-28 23:22 | 23.42822 | 39.64685 | 26285 ft | 515 kts | 356° |
| 2026-04-28 23:23 | 23.46394 | 39.64875 | 26137 ft | 511 kts | 356° |
| 2026-04-28 23:23 | 23.49950 | 39.65062 | 25657 ft | 512 kts | 356° |
| 2026-04-28 23:23 | 23.53537 | 39.65247 | 24860 ft | 520 kts | 357° |
| 2026-04-28 23:23 | 23.57183 | 39.65432 | 24023 ft | 528 kts | 358° |
| 2026-04-28 23:24 | 23.60816 | 39.65620 | 23435 ft | 528 kts | 358° |
| 2026-04-28 23:24 | 23.64489 | 39.65817 | 22879 ft | 525 kts | 358° |
| 2026-04-28 23:24 | 23.68125 | 39.66024 | 22377 ft | 520 kts | 359° |
| 2026-04-28 23:24 | 23.71676 | 39.66236 | 21906 ft | 496 kts | 359° |
| 2026-04-28 23:25 | 23.75028 | 39.66449 | 21456 ft | 469 kts | 359° |
| 2026-04-28 23:25 | 23.78208 | 39.66656 | 21018 ft | 446 kts | 359° |
| 2026-04-28 23:25 | 23.81235 | 39.66855 | 20548 ft | 426 kts | 359° |
| 2026-04-28 23:25 | 23.84138 | 39.67048 | 20127 ft | 409 kts | 359° |
| 2026-04-28 23:26 | 23.86940 | 39.67235 | 19556 ft | 397 kts | 359° |
| 2026-04-28 23:26 | 23.89662 | 39.67526 | 19056 ft | 389 kts | 2° |
| 2026-04-28 23:26 | 23.92344 | 39.67873 | 18812 ft | 387 kts | 3° |
| 2026-04-28 23:26 | 23.95017 | 39.68232 | 18803 ft | 386 kts | 3° |
| 2026-04-28 23:27 | 23.97640 | 39.68596 | 18815 ft | 385 kts | 3° |
| 2026-04-28 23:27 | 24.00287 | 39.68973 | 19094 ft | 380 kts | 3° |
| 2026-04-28 23:27 | 24.02880 | 39.69354 | 19672 ft | 369 kts | 3° |
| 2026-04-28 23:27 | 24.05380 | 39.69728 | 20387 ft | 357 kts | 2° |
| 2026-04-28 23:28 | 24.07836 | 39.70091 | 20785 ft | 357 kts | 2° |
| 2026-04-28 23:28 | 24.10333 | 39.70451 | 20819 ft | 368 kts | 2° |
| 2026-04-28 23:28 | 24.12927 | 39.70815 | 20572 ft | 385 kts | 2° |
| 2026-04-28 23:28 | 24.15614 | 39.71192 | 20010 ft | 390 kts | 2° |
| 2026-04-28 23:29 | 24.18295 | 39.71576 | 19051 ft | 385 kts | 3° |
| 2026-04-28 23:29 | 24.21087 | 39.72012 | 16956 ft | 422 kts | 6° |
| 2026-04-28 23:29 | 24.23972 | 39.72592 | 15793 ft | 418 kts | 7° |
| 2026-04-28 23:29 | 24.26867 | 39.73182 | 13788 ft | 431 kts | 8° |
| 2026-04-28 23:30 | 24.29872 | 39.73794 | 12293 ft | 433 kts | 7° |
| 2026-04-28 23:30 | 24.32839 | 39.74337 | 10853 ft | 428 kts | 6° |
| 2026-04-28 23:30 | 24.35702 | 39.74798 | 9402 ft | 416 kts | 5° |
| 2026-04-28 23:30 | 24.38534 | 39.74880 | 8466 ft | 389 kts | 347° |
| 2026-04-28 23:31 | 24.41081 | 39.73828 | 6785 ft | 380 kts | 334° |
| 2026-04-28 23:31 | 24.43669 | 39.73533 | 5668 ft | 372 kts | 15° |
| 2026-04-28 23:31 | 24.45712 | 39.74997 | 5616 ft | 335 kts | 52° |
| 2026-04-28 23:31 | 24.46622 | 39.77183 | 5397 ft | 308 kts | 76° |
| 2026-04-28 23:32 | 24.47201 | 39.79345 | 5238 ft | 286 kts | 70° |
| 2026-04-28 23:32 | 24.47904 | 39.81368 | 4961 ft | 282 kts | 72° |
| 2026-04-28 23:32 | 24.48045 | 39.83497 | 4613 ft | 282 kts | 102° |
| 2026-04-28 23:32 | 24.47253 | 39.85443 | 4248 ft | 281 kts | 129° |
| 2026-04-28 23:33 | 24.45802 | 39.86818 | 3895 ft | 274 kts | 154° |
| 2026-04-28 23:33 | 24.44013 | 39.87405 | 3653 ft | 264 kts | 179° |
| 2026-04-28 23:33 | 24.42255 | 39.87155 | 4022 ft | 255 kts | 201° |
| 2026-04-28 23:33 | 24.40754 | 39.86220 | 4377 ft | 245 kts | 226° |
| 2026-04-28 23:34 | 24.39847 | 39.84679 | 4491 ft | 241 kts | 249° |
| 2026-04-28 23:34 | 24.39334 | 39.82926 | 4494 ft | 243 kts | 258° |
| 2026-04-28 23:34 | 24.39018 | 39.81102 | 4490 ft | 243 kts | 262° |
| 2026-04-28 23:34 | 24.38858 | 39.79859 | 4487 ft | 243 kts | 263° |
| 2026-04-28 23:35 | 24.38643 | 39.78032 | 4491 ft | 246 kts | 263° |
| 2026-04-28 23:35 | 24.38675 | 39.76173 | 4482 ft | 244 kts | 291° |
| 2026-04-28 23:35 | 24.39656 | 39.74716 | 4492 ft | 240 kts | 325° |
| 2026-04-28 23:35 | 24.41124 | 39.73825 | 4496 ft | 244 kts | 341° |
| 2026-04-28 23:36 | 24.42778 | 39.73415 | 4328 ft | 246 kts | 351° |
| 2026-04-28 23:36 | 24.44461 | 39.73132 | 4038 ft | 238 kts | 349° |
| 2026-04-28 23:36 | 24.46016 | 39.72815 | 3738 ft | 216 kts | 348° |
| 2026-04-28 23:36 | 24.47432 | 39.72502 | 3409 ft | 201 kts | 347° |
| 2026-04-28 23:37 | 24.48793 | 39.72210 | 3140 ft | 199 kts | 348° |
| 2026-04-28 23:37 | 24.50138 | 39.71925 | 2858 ft | 191 kts | 348° |
| 2026-04-28 23:37 | 24.51384 | 39.71660 | 2594 ft | 173 kts | 348° |
| 2026-04-28 23:37 | 24.52517 | 39.71417 | 2363 ft | 157 kts | 348° |
| 2026-04-28 23:38 | 24.53541 | 39.71191 | 2164 ft | 149 kts | 349° |
| 2026-04-28 23:38 | 24.54536 | 39.70986 | 2116 ft | 138 kts | 348° |
| 2026-04-28 23:38 | 24.55363 | 39.70822 | 2113 ft | 110 kts | 352° |
| 2026-04-28 23:38 | 24.55984 | 39.70686 | 2115 ft | 49 kts | 341° |
| 2026-04-28 23:39 | 24.56120 | 39.70689 | 2116 ft | 5 kts | 38° |
| 2026-04-28 23:39 | 24.56121 | 39.70690 | 2116 ft | 0 kts | 37° |
| 2026-04-28 23:39 | 24.56144 | 39.70700 | 2116 ft | 3 kts | 20° |
| 2026-04-28 23:39 | 24.56200 | 39.70722 | 2115 ft | 14 kts | 15° |
| 2026-04-28 23:40 | 24.56270 | 39.70764 | 2113 ft | 9 kts | 57° |
| 2026-04-28 23:40 | 24.56251 | 39.70814 | 2111 ft | 7 kts | 154° |
| 2026-04-28 23:40 | 24.56207 | 39.70826 | 2110 ft | 6 kts | 168° |
| 2026-04-28 23:40 | 24.56169 | 39.70833 | 2110 ft | 5 kts | 181° |
| 2026-04-28 23:41 | 24.56135 | 39.70840 | 2110 ft | 6 kts | 167° |
| 2026-04-28 23:41 | 24.56082 | 39.70852 | 2110 ft | 9 kts | 166° |
| 2026-04-28 23:41 | 24.56013 | 39.70869 | 2110 ft | 11 kts | 168° |
| 2026-04-28 23:41 | 24.55926 | 39.70888 | 2110 ft | 14 kts | 169° |
| 2026-04-28 23:42 | 24.55823 | 39.70909 | 2110 ft | 16 kts | 170° |
| 2026-04-28 23:42 | 24.55717 | 39.70929 | 2109 ft | 15 kts | 162° |
| 2026-04-28 23:42 | 24.55612 | 39.70961 | 2109 ft | 17 kts | 169° |
| 2026-04-28 23:42 | 24.55491 | 39.70978 | 2109 ft | 18 kts | 173° |
| 2026-04-28 23:43 | 24.55375 | 39.71000 | 2109 ft | 16 kts | 167° |
| 2026-04-28 23:43 | 24.55275 | 39.71029 | 2111 ft | 13 kts | 159° |
| 2026-04-28 23:43 | 24.55233 | 39.71095 | 2109 ft | 10 kts | 84° |
| 2026-04-28 23:43 | 24.55244 | 39.71168 | 2108 ft | 9 kts | 76° |
| 2026-04-28 23:44 | 24.55283 | 39.71209 | 2108 ft | 7 kts | 36° |
| 2026-04-28 23:44 | 24.55304 | 39.71249 | 2108 ft | 6 kts | 76° |
| 2026-04-28 23:44 | 24.55312 | 39.71288 | 2108 ft | 5 kts | 79° |
| 2026-04-28 23:44 | 24.55316 | 39.71307 | 2108 ft | 0 kts | 79° |
| 2026-04-28 23:45 | 24.55316 | 39.71312 | 2108 ft | 1 kts | 79° |
| 2026-04-28 23:45 | 24.55317 | 39.71313 | 2108 ft | 0 kts | 78° |